New Hyde Park, NY

9:59 AM EDT on May 05, 2015 (GMT -0400)
New Hyde Park | | Change Station
CLOSE
Current Station
Personal Weather Station
Location: Garden City, NY
Elevation: 108 ft
Nearby Weather Stations

Elev 108 ft 40.76 °N, 73.67 °W | Updated 1 minute ago

Mostly Cloudy
Mostly Cloudy
77.5 °F
Feels Like 79 °F
N
1.0
Wind Variable Wind from South
Gusts 2.0 mph

Today
High -- | Low -- °F
--% Chance of Precip.
Yesterday
High -- | Low -- °F
Precip. -- in
5:48 AM 7:54 PM
Full, 98% visible
Pressure 30.20 in
Visibility 10.0 miles
Clouds Mostly Cloudy 12000 ft
Mostly Cloudy 25000 ft
Heat Index 79 °F
Dew Point 56 °F
Humidity 48%
Rainfall 0.00 in
Snow Depth Not available.
UV 3 out of 12
Pollen 10.00 out of 12
Air Quality Not available.
Flu Activity Widespread
METAR KLGA 051351Z 31008KT 10SM BKN120 BKN250 20/11 A3020 RMK AO2 SLP226 T02000106

More Conditions Fewer Conditions

Pressure 30.20 in
Visibility 10.0 miles
Clouds Mostly Cloudy 12000 ft
Mostly Cloudy 25000 ft
Heat Index 79 °F
Dew Point 56 °F
Humidity 48%
Rainfall 0.00 in
Snow Depth Not available.
UV 3 out of 12
Pollen 10.00 out of 12
Air Quality Not available.
Flu Activity Widespread
METAR KLGA 051351Z 31008KT 10SM BKN120 BKN250 20/11 A3020 RMK AO2 SLP226 T02000106

More Conditions Fewer Conditions

Nepal has a long way to go to dig out and rebuild from a devastating earthquake. We have teamed up with several charities and organizations to make contributing to the relief effort as easy as possible.
How you can help: Portlight Strategies | Red Cross

10-Day Weather Forecast

Almanac

Astronomy

May. 05, 2015 Rise Set
Actual Time
Civil Twilight
Nautical Twilight
Astronomical Twilight
Moon
Length of Visible Light
Length of Day
Tomorrow will be .
, % of the Moon is Illuminated

Today's Extremes

State Highs State Lows

Community

WunderPhotos

Upload Photos

1,818,889 photos uploaded!

WunderBlogs® & News

Nearby

Air Quality

  Air Quality AQ Index Pollutant
Not available.

Snow Depth

Station Depth Elevation

Earthquake Activity

City Distance Mag. Time & Date
Minimum magnitude displayed is 2.5.

Coastal Water Temperatures

Place Temperature

Stations

Nearby Weather Stations

Station Location Temp. Windchill Dew Point Humidity Wind Precip. Elev Updated Type